Time;durP1;ratioP1;P1;durP2;ratioP2;P2;SDS_P1;SDS_P2;PMS_P1;PMS_P2;Temp;Humidity;BMP_temperature;BMP_pressure;BME280_temperature;BME280_humidity;BME280_pressure;Samples;Min_cycle;Max_cycle;Signal;HPM_P1;HPM_P2
2024/01/10 05:00:30;;;;;;;10.90;5.82;;;-5.70;99.90;;;;;;5788516;23;20181;-73
2024/01/10 05:02:57;;;;;;;6.88;2.25;;;-5.70;99.90;;;;;;4896298;29;20565;-71
2024/01/10 05:05:24;;;;;;;4.38;3.83;;;-5.70;99.90;;;;;;4898470;29;20851;-72
2024/01/10 05:07:51;;;;;;;12.63;3.78;;;-5.70;99.90;;;;;;4895942;29;20634;-70
2024/01/10 05:10:18;;;;;;;10.95;4.00;;;-5.70;99.90;;;;;;4898519;29;20215;-69
2024/01/10 05:12:45;;;;;;;2.53;2.47;;;-5.80;99.90;;;;;;4893392;29;20220;-69
2024/01/10 05:15:11;;;;;;;6.22;4.90;;;-5.80;99.90;;;;;;4896021;29;20211;-68
2024/01/10 05:17:39;;;;;;;3.80;3.35;;;-5.90;99.90;;;;;;4897386;29;20219;-69
2024/01/10 05:20:08;;;;;;;2.40;2.10;;;-5.90;99.90;;;;;;4896650;29;20237;-69
2024/01/10 05:22:36;;;;;;;8.82;4.97;;;-5.80;99.90;;;;;;4895258;29;20311;-70
2024/01/10 05:25:04;;;;;;;9.77;3.75;;;-5.90;99.90;;;;;;4896057;29;20744;-69
2024/01/10 05:27:30;;;;;;;4.68;4.32;;;-5.90;99.90;;;;;;4897072;29;20218;-70
2024/01/10 05:29:59;;;;;;;6.07;2.20;;;-5.90;99.90;;;;;;4896364;29;20234;-69
2024/01/10 05:32:26;;;;;;;3.03;2.75;;;-5.90;99.90;;;;;;4896717;29;20330;-69
2024/01/10 05:34:54;;;;;;;5.25;4.22;;;-5.90;99.90;;;;;;4893471;29;20268;-70
2024/01/10 05:37:21;;;;;;;6.28;2.80;;;-5.90;99.90;;;;;;4896752;29;20215;-70
2024/01/10 05:39:49;;;;;;;4.25;4.03;;;-5.90;99.90;;;;;;4895764;29;20215;-68
2024/01/10 05:42:16;;;;;;;7.22;4.03;;;-5.90;99.90;;;;;;4892741;29;20227;-69
2024/01/10 05:44:42;;;;;;;5.60;3.83;;;-5.90;99.90;;;;;;4897833;29;20443;-69
2024/01/10 05:47:09;;;;;;;5.65;4.18;;;-5.90;99.90;;;;;;4896434;29;20207;-70
2024/01/10 05:49:36;;;;;;;2.90;2.80;;;-6.00;99.90;;;;;;4898043;29;20203;-68
2024/01/10 05:52:04;;;;;;;1.90;1.80;;;-5.90;99.90;;;;;;4895946;29;20233;-70
2024/01/10 05:54:31;;;;;;;5.43;5.13;;;-5.90;99.90;;;;;;4898037;29;20607;-70
2024/01/10 05:56:58;;;;;;;4.93;4.53;;;-5.90;99.90;;;;;;4895936;29;20212;-69
2024/01/10 05:59:26;;;;;;;3.58;2.38;;;-5.90;99.90;;;;;;4891579;29;20241;-68
2024/01/10 06:01:53;;;;;;;4.40;4.07;;;-5.90;99.90;;;;;;4894198;29;20326;-69
2024/01/10 06:04:20;;;;;;;5.88;5.25;;;-5.90;99.90;;;;;;4895808;29;20215;-68
2024/01/10 06:06:47;;;;;;;3.03;2.80;;;-5.90;99.90;;;;;;4896176;29;20709;-69
2024/01/10 06:09:21;;;;;;;5.78;2.47;;;-5.90;99.90;;;;;;4896812;29;20223;-71
2024/01/10 06:11:48;;;;;;;5.68;4.43;;;-5.90;99.90;;;;;;4894079;29;20287;-69
2024/01/10 06:14:15;;;;;;;8.43;4.97;;;-5.90;99.90;;;;;;4894973;29;20215;-67
2024/01/10 06:16:41;;;;;;;8.00;3.95;;;-5.90;99.90;;;;;;4895795;29;20207;-68
2024/01/10 06:19:10;;;;;;;7.55;6.95;;;-6.00;99.90;;;;;;4894855;29;20211;-69
2024/01/10 06:21:36;;;;;;;3.05;2.85;;;-6.00;99.90;;;;;;4894209;29;20596;-69
2024/01/10 06:24:03;;;;;;;5.22;4.32;;;-6.00;99.90;;;;;;4896114;29;20215;-68
2024/01/10 06:26:32;;;;;;;3.80;2.55;;;-6.00;99.90;;;;;;4894701;29;20258;-68
2024/01/10 06:28:58;;;;;;;3.78;3.58;;;-6.00;99.90;;;;;;4895807;29;20203;-69
2024/01/10 06:31:25;;;;;;;5.25;4.70;;;-6.00;99.90;;;;;;4895395;29;20646;-68
2024/01/10 06:33:52;;;;;;;2.50;2.40;;;-6.00;99.90;;;;;;4894038;29;20219;-72
2024/01/10 06:36:19;;;;;;;3.63;3.33;;;-6.10;99.90;;;;;;4894183;29;20215;-68
2024/01/10 06:38:45;;;;;;;3.15;2.85;;;-6.10;99.90;;;;;;4894695;29;20207;-68
2024/01/10 06:41:13;;;;;;;3.60;3.38;;;-6.10;99.90;;;;;;4893751;29;20238;-69
2024/01/10 06:43:42;;;;;;;9.48;6.25;;;-6.20;99.90;;;;;;4895431;29;20283;-69
2024/01/10 06:46:10;;;;;;;1.63;1.52;;;-6.20;99.90;;;;;;4893161;29;20238;-68
2024/01/10 06:48:36;;;;;;;3.75;3.40;;;-6.20;99.90;;;;;;4896590;29;20294;-70
2024/01/10 06:51:04;;;;;;;2.42;2.35;;;-6.30;99.90;;;;;;4894393;29;20233;-69
2024/01/10 06:53:30;;;;;;;5.47;4.80;;;-6.30;99.90;;;;;;4895561;29;20215;-69
2024/01/10 06:55:57;;;;;;;1.52;1.45;;;-6.30;99.90;;;;;;4895944;29;20211;-68
2024/01/10 06:58:24;;;;;;;4.47;3.88;;;-6.40;99.90;;;;;;4894654;29;20214;-69
2024/01/10 07:00:52;;;;;;;1.38;1.38;;;-6.40;99.90;;;;;;4892241;29;20580;-70
2024/01/10 07:03:19;;;;;;;3.30;1.98;;;-6.40;99.90;;;;;;4894742;29;20237;-68
2024/01/10 07:05:45;;;;;;;5.28;4.82;;;-6.50;99.90;;;;;;4893695;29;20323;-70
2024/01/10 07:08:12;;;;;;;3.17;2.85;;;-6.50;99.90;;;;;;4893488;29;20744;-68
2024/01/10 07:10:39;;;;;;;4.25;3.88;;;-6.50;99.90;;;;;;4894136;29;20224;-69
2024/01/10 07:13:06;;;;;;;3.15;2.92;;;-6.50;99.90;;;;;;4893402;29;20223;-69
2024/01/10 07:15:33;;;;;;;1.75;1.70;;;-6.40;99.90;;;;;;4892572;29;20200;-68
2024/01/10 07:18:02;;;;;;;4.05;3.88;;;-6.50;99.90;;;;;;4897020;29;20576;-68
2024/01/10 07:20:28;;;;;;;2.75;2.63;;;-6.50;99.90;;;;;;4894259;29;20284;-68
2024/01/10 07:22:55;;;;;;;3.05;2.95;;;-6.50;99.90;;;;;;4895211;29;20670;-69
2024/01/10 07:25:25;;;;;;;2.38;2.17;;;-6.40;99.90;;;;;;4895115;29;20268;-68
2024/01/10 07:27:51;;;;;;;0.45;0.45;;;-6.40;99.90;;;;;;4896199;29;20698;-68
2024/01/10 07:30:18;;;;;;;4.78;2.67;;;-6.40;99.90;;;;;;4894598;29;20211;-68
2024/01/10 07:32:46;;;;;;;5.97;2.20;;;-6.30;99.90;;;;;;4895851;29;20226;-68
2024/01/10 07:35:15;;;;;;;4.72;3.13;;;-6.30;99.90;;;;;;4895079;29;20207;-68
2024/01/10 07:37:43;;;;;;;9.82;3.72;;;-6.30;99.90;;;;;;4894940;29;20241;-68
2024/01/10 07:40:10;;;;;;;2.60;2.25;;;-6.30;99.90;;;;;;4898376;29;20629;-69
2024/01/10 07:42:39;;;;;;;1.27;1.27;;;-6.30;99.90;;;;;;4895946;29;20242;-68
2024/01/10 07:45:08;;;;;;;3.88;1.73;;;-6.20;99.90;;;;;;4894426;29;20239;-68
2024/01/10 07:47:37;;;;;;;9.93;4.20;;;-6.20;99.90;;;;;;4896610;29;20299;-69
2024/01/10 07:50:05;;;;;;;5.15;3.85;;;-6.20;99.90;;;;;;4888792;29;20226;-70
2024/01/10 07:52:34;;;;;;;3.22;1.15;;;-6.20;99.90;;;;;;4892429;29;20239;-69
2024/01/10 07:55:00;;;;;;;2.95;1.85;;;-6.20;99.90;;;;;;4895432;29;20222;-68
2024/01/10 07:57:27;;;;;;;3.25;3.08;;;-6.20;99.90;;;;;;4894670;29;20211;-69
2024/01/10 07:59:54;;;;;;;4.05;1.85;;;-6.30;99.90;;;;;;4901583;29;20207;-68
2024/01/10 08:02:21;;;;;;;6.95;3.40;;;-6.20;99.90;;;;;;4895559;29;20747;-69
2024/01/10 08:04:48;;;;;;;3.25;2.13;;;-6.20;99.90;;;;;;4896081;29;20310;-68
2024/01/10 08:07:15;;;;;;;3.25;3.05;;;-6.20;99.90;;;;;;4898351;29;20235;-69
2024/01/10 08:09:43;;;;;;;3.30;3.03;;;-6.10;99.90;;;;;;4898733;29;20215;-71
2024/01/10 08:12:11;;;;;;;4.90;4.00;;;-6.10;99.90;;;;;;4897880;29;20263;-68
2024/01/10 08:14:38;;;;;;;6.00;5.30;;;-6.10;99.90;;;;;;4897120;29;20213;-68
2024/01/10 08:17:06;;;;;;;3.90;3.70;;;-6.10;99.90;;;;;;4898003;29;20215;-68
2024/01/10 08:19:33;;;;;;;5.55;3.00;;;-6.10;99.90;;;;;;4893612;29;20552;-68
2024/01/10 08:21:59;;;;;;;7.40;4.38;;;-6.10;99.90;;;;;;4894595;29;20631;-69
2024/01/10 08:24:26;;;;;;;4.97;3.03;;;-6.10;99.90;;;;;;4893518;29;20211;-68
2024/01/10 08:26:54;;;;;;;1.75;1.40;;;-6.00;99.90;;;;;;4894847;29;20235;-69
2024/01/10 08:29:21;;;;;;;6.85;2.03;;;-5.90;99.90;;;;;;4896799;29;20597;-69
2024/01/10 08:31:48;;;;;;;8.05;3.83;;;-5.90;99.90;;;;;;4896990;29;20298;-68
2024/01/10 08:34:15;;;;;;;2.58;2.58;;;-5.90;99.90;;;;;;4897968;29;20218;-68
2024/01/10 08:36:42;;;;;;;5.28;2.92;;;-5.90;99.90;;;;;;4895005;29;20209;-68
2024/01/10 08:39:10;;;;;;;6.57;3.65;;;-5.90;99.90;;;;;;4895123;29;20577;-69
2024/01/10 08:41:42;;;;;;;5.72;3.42;;;-5.80;99.90;;;;;;4895056;29;20718;-68
2024/01/10 08:44:11;;;;;;;2.30;1.85;;;-5.80;99.90;;;;;;4896972;29;20683;-69
2024/01/10 08:46:38;;;;;;;2.67;2.53;;;-5.70;99.90;;;;;;4896543;29;20235;-68
2024/01/10 08:49:05;;;;;;;5.03;4.70;;;-5.60;99.90;;;;;;4898330;29;20218;-68
2024/01/10 08:51:31;;;;;;;2.58;2.17;;;-5.60;99.90;;;;;;4896275;29;20235;-68
2024/01/10 08:53:58;;;;;;;15.23;4.43;;;-5.60;99.90;;;;;;4894472;29;20211;-68
2024/01/10 08:56:25;;;;;;;11.73;4.43;;;-5.60;99.90;;;;;;4897669;29;20203;-68
2024/01/10 08:58:52;;;;;;;5.78;2.00;;;-5.60;99.90;;;;;;4896825;29;20211;-69
2024/01/10 09:01:21;;;;;;;3.42;3.13;;;-5.40;99.90;;;;;;4896285;29;20231;-68
2024/01/10 09:03:48;;;;;;;2.75;2.55;;;-5.40;99.90;;;;;;4892022;29;20271;-69
2024/01/10 09:06:16;;;;;;;2.08;1.98;;;-5.30;99.90;;;;;;4895747;29;20231;-69
2024/01/10 09:08:43;;;;;;;5.95;3.83;;;-5.30;99.90;;;;;;4896147;29;20239;-70
2024/01/10 09:11:10;;;;;;;6.90;4.47;;;-5.30;99.90;;;;;;4898660;29;20243;-68
2024/01/10 09:13:39;;;;;;;5.30;3.25;;;-5.30;99.90;;;;;;4895802;29;20575;-69
2024/01/10 09:16:06;;;;;;;13.20;2.30;;;-5.20;99.90;;;;;;4897181;29;20283;-69
2024/01/10 09:18:34;;;;;;;6.63;3.05;;;-5.30;99.90;;;;;;4897345;29;20211;-69
2024/01/10 09:21:01;;;;;;;3.17;2.58;;;-5.20;99.90;;;;;;4898421;29;20239;-69
2024/01/10 09:23:28;;;;;;;3.67;3.47;;;-5.20;99.90;;;;;;4894981;29;20214;-69
2024/01/10 09:25:55;;;;;;;5.72;4.35;;;-5.20;99.90;;;;;;4895744;29;20654;-70
2024/01/10 09:28:22;;;;;;;3.45;3.17;;;-5.30;99.90;;;;;;4896163;29;20230;-70
2024/01/10 09:30:48;;;;;;;4.88;2.42;;;-5.30;99.90;;;;;;4897740;29;20247;-69
2024/01/10 09:33:15;;;;;;;6.00;3.75;;;-5.20;99.90;;;;;;4894583;29;20204;-68
2024/01/10 09:35:43;;;;;;;4.05;3.00;;;-5.20;99.90;;;;;;4897122;29;20672;-69
2024/01/10 09:38:10;;;;;;;4.95;4.63;;;-5.00;99.90;;;;;;4897437;29;20211;-68
2024/01/10 09:40:37;;;;;;;3.50;2.17;;;-4.90;99.90;;;;;;4891587;29;20230;-69
2024/01/10 09:43:07;;;;;;;4.22;3.45;;;-4.80;99.90;;;;;;4896028;29;20211;-68
2024/01/10 09:45:36;;;;;;;11.40;6.68;;;-4.70;99.90;;;;;;4891088;29;20288;-69
2024/01/10 09:48:03;;;;;;;5.65;5.15;;;-4.50;99.90;;;;;;4898176;29;20215;-71
2024/01/10 09:50:30;;;;;;;6.90;2.83;;;-4.50;99.90;;;;;;4898844;29;20271;-69
2024/01/10 09:53:05;;;;;;;2.22;2.17;;;-4.50;99.90;;;;;;4896522;29;20208;-70
2024/01/10 09:55:35;;;;;;;5.97;3.70;;;-4.40;99.90;;;;;;4891663;29;20225;-70
2024/01/10 09:58:03;;;;;;;11.52;6.72;;;-4.40;99.90;;;;;;4893435;29;20207;-70
2024/01/10 10:00:31;;;;;;;10.45;2.70;;;-4.30;99.90;;;;;;4895682;29;20620;-70
2024/01/10 10:02:59;;;;;;;5.35;3.67;;;-4.30;99.90;;;;;;4895789;29;20218;-71
2024/01/10 10:05:26;;;;;;;2.67;2.40;;;-4.30;99.90;;;;;;4894101;29;20203;-70
2024/01/10 10:07:54;;;;;;;5.43;3.17;;;-4.30;99.90;;;;;;4898346;29;20302;-69
2024/01/10 10:10:22;;;;;;;6.60;3.88;;;-4.20;99.90;;;;;;4894277;29;20207;-68
2024/01/10 10:12:51;;;;;;;8.38;7.55;;;-4.20;99.90;;;;;;4894073;29;20211;-69
2024/01/10 10:15:21;;;;;;;8.98;5.95;;;-4.20;99.90;;;;;;4892887;29;20238;-69
2024/01/10 10:17:49;;;;;;;6.80;5.72;;;-4.10;99.90;;;;;;4896617;29;20286;-70
2024/01/10 10:20:21;;;;;;;5.03;4.07;;;-4.10;99.90;;;;;;4893729;29;20245;-69
2024/01/10 10:23:02;;;;;;;8.55;4.78;;;-4.10;99.90;;;;;;4893388;29;20227;-70
2024/01/10 10:25:32;;;;;;;9.50;4.72;;;-4.00;99.90;;;;;;4894870;29;20230;-69
2024/01/10 10:27:59;;;;;;;6.05;3.05;;;-4.00;99.90;;;;;;4894849;29;20207;-69
2024/01/10 10:30:26;;;;;;;6.32;4.50;;;-4.00;99.90;;;;;;4895243;29;20647;-69
2024/01/10 10:32:54;;;;;;;11.95;4.15;;;-4.00;99.90;;;;;;4893258;29;20241;-68
2024/01/10 10:35:21;;;;;;;5.07;1.95;;;-4.00;99.90;;;;;;4895590;29;20247;-69
2024/01/10 10:37:49;;;;;;;8.88;4.40;;;-4.00;99.90;;;;;;4895399;29;20678;-69
2024/01/10 10:40:16;;;;;;;3.45;3.25;;;-3.90;99.90;;;;;;4894433;29;20309;-70
2024/01/10 10:42:47;;;;;;;9.30;3.35;;;-3.90;99.90;;;;;;4894647;29;20579;-68
2024/01/10 10:45:17;;;;;;;6.20;4.45;;;-3.90;99.90;;;;;;4894650;29;20591;-69
2024/01/10 10:47:49;;;;;;;10.40;4.00;;;-3.90;99.90;;;;;;4895361;29;20263;-70
2024/01/10 10:50:22;;;;;;;4.72;2.20;;;-3.80;99.90;;;;;;4891741;29;20211;-71
2024/01/10 10:52:50;;;;;;;1.25;1.15;;;-3.80;99.90;;;;;;4895554;29;20214;-68
2024/01/10 10:55:18;;;;;;;8.23;2.90;;;-3.90;99.90;;;;;;4896030;29;20247;-69
2024/01/10 10:57:48;;;;;;;4.20;3.83;;;-3.90;99.90;;;;;;4895201;29;20208;-69
2024/01/10 11:00:16;;;;;;;5.63;2.05;;;-3.90;99.90;;;;;;4892583;29;20226;-70
2024/01/10 11:02:43;;;;;;;4.85;4.25;;;-3.80;99.90;;;;;;4892981;29;20211;-70
2024/01/10 11:05:10;;;;;;;3.75;3.53;;;-3.70;99.90;;;;;;4889218;29;20262;-68
2024/01/10 11:07:37;;;;;;;5.18;3.58;;;-3.60;99.90;;;;;;4892408;29;21220;-68
2024/01/10 11:10:09;;;;;;;7.40;4.80;;;-3.60;99.90;;;;;;4895003;29;20250;-68
2024/01/10 11:13:02;;;;;;;7.22;5.55;;;-3.60;99.90;;;;;;4894008;29;20234;-69
2024/01/10 11:15:49;;;;;;;6.28;3.90;;;-3.50;99.90;;;;;;4893090;29;20226;-69
2024/01/10 11:18:40;;;;;;;10.27;8.07;;;-3.40;99.90;;;;;;4890353;29;20230;-68
2024/01/10 11:21:20;;;;;;;13.55;5.22;;;-3.40;99.90;;;;;;4894057;29;20245;-69
2024/01/10 11:23:49;;;;;;;3.13;2.90;;;-3.40;99.90;;;;;;4893359;29;20219;-69
2024/01/10 11:26:16;;;;;;;8.70;5.10;;;-3.40;99.90;;;;;;4894498;29;20231;-70
2024/01/10 11:28:45;;;;;;;14.57;4.55;;;-3.30;99.90;;;;;;4895405;29;20242;-69
2024/01/10 11:31:15;;;;;;;7.05;6.38;;;-3.30;99.90;;;;;;4892438;29;20587;-68
2024/01/10 11:33:43;;;;;;;11.98;3.80;;;-3.30;99.90;;;;;;4894101;29;20217;-69
2024/01/10 11:36:15;;;;;;;9.13;4.60;;;-3.30;99.90;;;;;;4893752;29;20223;-69
2024/01/10 11:38:50;;;;;;;2.92;2.78;;;-3.40;99.90;;;;;;4887553;29;20548;-69
2024/01/10 11:41:24;;;;;;;11.75;3.28;;;-3.40;99.90;;;;;;4891032;29;20241;-69
2024/01/10 11:44:37;;;;;;;8.40;3.05;;;-3.30;99.90;;;;;;4894113;29;20265;-69
2024/01/10 11:47:05;;;;;;;2.25;2.03;;;-3.30;99.90;;;;;;4869718;29;20710;-70
2024/01/10 11:49:32;;;;;;;7.35;3.35;;;-3.30;99.90;;;;;;4893694;29;20207;-69
2024/01/10 11:52:00;;;;;;;2.72;2.63;;;-3.20;99.90;;;;;;4893833;29;20254;-69
2024/01/10 11:54:37;;;;;;;8.43;3.97;;;-3.20;99.90;;;;;;4891060;29;20267;-71
2024/01/10 11:57:09;;;;;;;9.75;3.67;;;-3.20;99.90;;;;;;4892200;29;20661;-70
2024/01/10 11:59:36;;;;;;;9.30;4.10;;;-3.10;99.90;;;;;;4890899;29;20219;-70
2024/01/10 12:02:03;;;;;;;4.05;1.95;;;-3.10;99.90;;;;;;4894691;29;20243;-69
2024/01/10 12:04:32;;;;;;;7.50;4.60;;;-3.10;99.90;;;;;;4892648;29;20623;-69
2024/01/10 12:06:59;;;;;;;10.02;4.00;;;-3.00;99.90;;;;;;4891619;29;20780;-69
2024/01/10 12:09:26;;;;;;;1.55;1.55;;;-3.00;99.90;;;;;;4894287;29;20215;-70
2024/01/10 12:11:53;;;;;;;4.18;2.17;;;-3.00;99.90;;;;;;4892532;29;20580;-69
2024/01/10 12:14:21;;;;;;;4.07;3.53;;;-3.00;99.90;;;;;;4891189;29;20212;-70
2024/01/10 12:16:48;;;;;;;4.07;3.78;;;-3.00;99.90;;;;;;4894015;29;20207;-70
2024/01/10 12:19:14;;;;;;;4.20;1.98;;;-3.00;99.90;;;;;;4878505;29;20219;-70
2024/01/10 12:21:43;;;;;;;7.78;3.92;;;-3.00;99.90;;;;;;4885821;29;20318;-70
2024/01/10 12:24:09;;;;;;;4.07;3.72;;;-3.00;99.90;;;;;;4887090;29;20208;-70
2024/01/10 12:26:36;;;;;;;4.03;3.72;;;-3.00;99.90;;;;;;4890933;29;20262;-70
2024/01/10 12:29:04;;;;;;;8.45;5.40;;;-3.00;99.90;;;;;;4885899;29;20915;-70
2024/01/10 12:31:31;;;;;;;8.95;3.03;;;-2.90;99.90;;;;;;4891848;29;20223;-69
2024/01/10 12:33:58;;;;;;;9.68;4.95;;;-2.90;99.90;;;;;;4892677;29;20220;-70
2024/01/10 12:36:25;;;;;;;4.55;2.42;;;-2.90;99.90;;;;;;4891061;29;20207;-70
2024/01/10 12:38:53;;;;;;;11.13;4.50;;;-2.90;99.90;;;;;;4891309;29;20556;-70
2024/01/10 12:41:20;;;;;;;7.18;6.18;;;-3.00;99.90;;;;;;4892112;29;20239;-70
2024/01/10 12:43:51;;;;;;;24.90;4.95;;;-3.00;99.90;;;;;;4888078;29;20212;-69
2024/01/10 12:46:18;;;;;;;10.82;4.80;;;-3.00;99.90;;;;;;4893554;29;20203;-70
2024/01/10 12:48:44;;;;;;;6.55;4.18;;;-3.00;99.90;;;;;;4895773;29;20226;-70
2024/01/10 12:51:12;;;;;;;7.85;3.53;;;-3.00;99.90;;;;;;4893244;29;24569;-69
2024/01/10 12:53:41;;;;;;;11.30;4.68;;;-3.00;99.90;;;;;;4895121;29;20222;-69
2024/01/10 12:56:13;;;;;;;10.65;4.97;;;-3.00;99.90;;;;;;4893556;29;20204;-69
2024/01/10 12:58:41;;;;;;;7.35;5.05;;;-3.00;99.90;;;;;;4893395;29;20316;-69
2024/01/10 13:01:09;;;;;;;8.93;5.88;;;-3.00;99.90;;;;;;4895893;29;20238;-69
2024/01/10 13:03:36;;;;;;;4.55;4.18;;;-3.00;99.90;;;;;;4893571;29;20207;-69
2024/01/10 13:06:03;;;;;;;2.70;2.50;;;-3.00;99.90;;;;;;4892845;29;20219;-69
2024/01/10 13:08:31;;;;;;;4.50;3.92;;;-3.00;99.90;;;;;;4896977;29;20231;-69
2024/01/10 13:10:59;;;;;;;1.58;1.55;;;-3.00;99.90;;;;;;4896937;29;20275;-66
2024/01/10 13:13:27;;;;;;;3.35;3.15;;;-3.00;99.90;;;;;;4896141;29;20211;-71
2024/01/10 13:15:55;;;;;;;6.10;4.00;;;-3.00;99.90;;;;;;4894836;29;20314;-69
2024/01/10 13:18:22;;;;;;;4.18;3.25;;;-3.10;99.90;;;;;;4897083;29;20207;-69
2024/01/10 13:20:49;;;;;;;7.05;3.83;;;-3.00;99.90;;;;;;4895103;29;20320;-71
2024/01/10 13:23:16;;;;;;;2.60;2.45;;;-3.00;99.90;;;;;;4893796;29;20207;-69
2024/01/10 13:25:43;;;;;;;10.00;5.13;;;-3.00;99.90;;;;;;4898000;29;20806;-69
2024/01/10 13:28:11;;;;;;;6.43;4.47;;;-3.00;99.90;;;;;;4900570;29;20238;-70
2024/01/10 13:30:41;;;;;;;9.18;6.32;;;-3.00;99.90;;;;;;4899642;29;20868;-70
2024/01/10 13:33:09;;;;;;;21.00;3.10;;;-3.00;99.90;;;;;;4898275;29;20214;-69
2024/01/10 13:35:35;;;;;;;2.47;2.38;;;-3.00;99.90;;;;;;4899861;29;20250;-70
2024/01/10 13:38:02;;;;;;;5.43;2.85;;;-3.00;99.90;;;;;;4903269;29;20287;-69
2024/01/10 13:40:29;;;;;;;5.40;4.15;;;-3.00;99.90;;;;;;4900403;29;20872;-69
2024/01/10 13:42:56;;;;;;;3.95;3.00;;;-3.00;99.90;;;;;;4900944;29;20212;-68
2024/01/10 13:45:22;;;;;;;4.97;4.47;;;-2.90;99.90;;;;;;4897219;29;20227;-68
2024/01/10 13:47:51;;;;;;;3.83;3.58;;;-3.00;99.90;;;;;;4898839;29;20895;-68
2024/01/10 13:50:17;;;;;;;5.28;4.22;;;-3.00;99.90;;;;;;4898213;29;20231;-69
2024/01/10 13:52:44;;;;;;;5.10;4.38;;;-2.90;99.90;;;;;;4900550;29;20246;-69
2024/01/10 13:55:11;;;;;;;9.38;4.75;;;-2.90;99.90;;;;;;4894555;29;20659;-69
2024/01/10 13:57:38;;;;;;;6.75;6.10;;;-2.80;99.90;;;;;;4897854;29;20290;-68
2024/01/10 14:00:07;;;;;;;4.55;4.22;;;-2.80;99.90;;;;;;4894315;29;20215;-69
2024/01/10 14:02:35;;;;;;;5.90;2.78;;;-2.80;99.90;;;;;;4896653;29;20234;-69
2024/01/10 14:05:05;;;;;;;2.47;2.38;;;-2.80;99.90;;;;;;4900966;29;20655;-69
2024/01/10 14:07:33;;;;;;;5.63;4.53;;;-2.90;99.90;;;;;;4901433;29;20257;-70
2024/01/10 14:09:59;;;;;;;5.95;5.50;;;-2.90;99.90;;;;;;4899424;29;20211;-70
2024/01/10 14:12:27;;;;;;;4.35;3.03;;;-3.00;99.90;;;;;;4899839;29;20234;-69
2024/01/10 14:14:54;;;;;;;1.67;1.45;;;-3.00;99.90;;;;;;4899886;29;20218;-70
2024/01/10 14:17:22;;;;;;;11.20;7.20;;;-3.00;99.90;;;;;;4898992;29;20207;-70
2024/01/10 14:19:49;;;;;;;8.68;4.38;;;-3.00;99.90;;;;;;4901555;29;20247;-69
2024/01/10 14:22:18;;;;;;;7.35;4.82;;;-3.00;99.90;;;;;;4895326;29;20314;-70
2024/01/10 14:24:45;;;;;;;5.07;4.53;;;-3.00;99.90;;;;;;4897361;29;20208;-69
2024/01/10 14:27:12;;;;;;;2.97;2.03;;;-3.10;99.90;;;;;;4897179;29;20242;-68
2024/01/10 14:29:38;;;;;;;6.55;5.10;;;-3.10;99.90;;;;;;4897991;29;20276;-70
2024/01/10 14:32:06;;;;;;;3.35;2.67;;;-3.10;99.90;;;;;;4897488;29;20745;-70
2024/01/10 14:34:32;;;;;;;5.07;2.55;;;-3.10;99.90;;;;;;4888969;29;20207;-68
2024/01/10 14:36:59;;;;;;;3.78;3.45;;;-3.10;99.90;;;;;;4893032;29;20208;-69
2024/01/10 14:39:27;;;;;;;4.05;3.65;;;-3.10;99.90;;;;;;4897662;29;20207;-69
2024/01/10 14:41:54;;;;;;;5.80;3.65;;;-3.10;99.90;;;;;;4902772;29;20682;-69
2024/01/10 14:44:21;;;;;;;9.48;4.32;;;-3.10;99.90;;;;;;4897307;29;20717;-69
2024/01/10 14:46:47;;;;;;;9.05;4.53;;;-3.10;99.90;;;;;;4891313;29;20215;-70
2024/01/10 14:49:14;;;;;;;7.97;6.97;;;-3.10;99.90;;;;;;4895168;29;20614;-70
2024/01/10 14:51:41;;;;;;;7.03;6.40;;;-3.10;99.90;;;;;;4895041;29;20246;-71
2024/01/10 14:54:08;;;;;;;7.13;3.83;;;-3.10;99.90;;;;;;4895317;29;20698;-68
2024/01/10 14:56:37;;;;;;;13.82;5.20;;;-3.10;99.90;;;;;;4893049;29;20224;-68
2024/01/10 14:59:04;;;;;;;16.52;4.70;;;-3.20;99.90;;;;;;4895556;29;20211;-69
2024/01/10 15:01:31;;;;;;;4.65;4.25;;;-3.20;99.90;;;;;;4896967;29;20251;-68
2024/01/10 15:03:57;;;;;;;6.30;4.18;;;-3.20;99.90;;;;;;4895722;29;20721;-68
2024/01/10 15:06:24;;;;;;;10.95;3.83;;;-3.20;99.90;;;;;;4904547;29;20294;-69
2024/01/10 15:08:51;;;;;;;8.13;4.40;;;-3.20;99.90;;;;;;4911759;29;20305;-69
2024/01/10 15:11:18;;;;;;;9.45;4.68;;;-3.20;99.90;;;;;;4908856;29;20223;-67
2024/01/10 15:13:47;;;;;;;5.90;3.53;;;-3.30;99.90;;;;;;4893983;29;20226;-70
2024/01/10 15:16:13;;;;;;;5.30;4.50;;;-3.30;99.90;;;;;;4891671;29;20238;-70
2024/01/10 15:18:40;;;;;;;6.60;6.10;;;-3.30;99.90;;;;;;4894578;29;20214;-69
2024/01/10 15:21:07;;;;;;;5.85;4.57;;;-3.40;99.90;;;;;;4890883;29;20258;-69
2024/01/10 15:23:34;;;;;;;8.02;3.88;;;-3.40;99.90;;;;;;4892378;29;20211;-69
2024/01/10 15:26:00;;;;;;;5.28;2.30;;;-3.50;99.90;;;;;;4892925;29;20211;-68
2024/01/10 15:28:28;;;;;;;7.25;3.42;;;-3.50;99.90;;;;;;4889000;29;20239;-68
2024/01/10 15:30:56;;;;;;;10.38;4.63;;;-3.50;99.90;;;;;;4890380;29;20274;-69
2024/01/10 15:33:22;;;;;;;9.10;4.55;;;-3.50;99.90;;;;;;4895888;29;20203;-71
2024/01/10 15:35:48;;;;;;;5.90;4.30;;;-3.50;99.90;;;;;;4893644;29;20226;-69
2024/01/10 15:38:15;;;;;;;13.00;5.53;;;-3.50;99.90;;;;;;4892088;29;20212;-70
2024/01/10 15:40:42;;;;;;;6.30;2.58;;;-3.50;99.90;;;;;;4893424;29;20238;-69
2024/01/10 15:43:09;;;;;;;3.83;3.53;;;-3.50;99.90;;;;;;4892187;29;20278;-69
2024/01/10 15:45:36;;;;;;;11.10;6.05;;;-3.50;99.90;;;;;;4885614;29;20239;-69
2024/01/10 15:48:06;;;;;;;10.63;4.07;;;-3.50;99.90;;;;;;4888913;29;20707;-69
2024/01/10 15:50:33;;;;;;;11.63;5.75;;;-3.50;99.90;;;;;;4894416;29;20250;-69
2024/01/10 15:53:00;;;;;;;6.35;4.10;;;-3.50;99.90;;;;;;4884779;29;20242;-70
2024/01/10 15:55:27;;;;;;;4.80;4.22;;;-3.50;99.90;;;;;;4892414;29;20718;-70
2024/01/10 15:57:53;;;;;;;4.07;3.67;;;-3.60;99.90;;;;;;4891444;29;20219;-70
2024/01/10 16:00:20;;;;;;;4.00;2.20;;;-3.60;99.90;;;;;;4893163;29;20233;-69
2024/01/10 16:02:47;;;;;;;7.13;3.88;;;-3.60;99.90;;;;;;4890938;29;20239;-71
2024/01/10 16:05:16;;;;;;;8.07;3.35;;;-3.60;99.90;;;;;;4891573;29;20635;-69
2024/01/10 16:07:43;;;;;;;5.03;3.00;;;-3.60;99.90;;;;;;4890533;29;20246;-70
2024/01/10 16:10:12;;;;;;;2.13;2.13;;;-3.70;99.90;;;;;;4891960;29;20207;-70
2024/01/10 16:12:39;;;;;;;4.50;3.50;;;-3.70;99.90;;;;;;4892925;29;20214;-69
2024/01/10 16:15:07;;;;;;;2.85;2.75;;;-3.70;99.90;;;;;;4888827;29;20385;-70
2024/01/10 16:17:34;;;;;;;4.80;2.83;;;-3.70;99.90;;;;;;4889674;29;20563;-70
2024/01/10 16:20:00;;;;;;;4.50;3.00;;;-3.80;99.90;;;;;;4894857;29;20254;-70
2024/01/10 16:22:29;;;;;;;2.70;2.30;;;-3.90;99.90;;;;;;4898014;29;20230;-70
2024/01/10 16:24:55;;;;;;;5.95;5.57;;;-3.90;99.90;;;;;;4894894;29;20284;-70
2024/01/10 16:27:22;;;;;;;5.65;2.97;;;-3.90;99.90;;;;;;4898334;29;20207;-71
2024/01/10 16:29:49;;;;;;;11.02;7.22;;;-3.90;99.90;;;;;;4893407;29;20231;-70
2024/01/10 16:32:16;;;;;;;6.57;3.90;;;-3.90;99.90;;;;;;4897509;29;20235;-70
2024/01/10 16:34:42;;;;;;;4.35;4.00;;;-3.90;99.90;;;;;;4894922;29;20211;-69
2024/01/10 16:37:09;;;;;;;2.35;2.10;;;-3.90;99.90;;;;;;4896595;29;20216;-70
2024/01/10 16:39:39;;;;;;;4.05;2.97;;;-3.90;99.90;;;;;;4895441;29;20208;-69
2024/01/10 16:42:06;;;;;;;6.57;3.15;;;-3.90;99.90;;;;;;4897347;29;20294;-69
2024/01/10 16:44:33;;;;;;;3.28;3.03;;;-3.90;99.90;;;;;;4896748;29;20321;-71
2024/01/10 16:46:59;;;;;;;7.65;4.05;;;-3.80;99.90;;;;;;4896304;29;20845;-69
2024/01/10 16:49:26;;;;;;;4.50;4.07;;;-3.80;99.90;;;;;;4892743;29;20695;-70
2024/01/10 16:51:53;;;;;;;6.57;4.28;;;-3.80;99.90;;;;;;4895196;29;20231;-70
2024/01/10 16:54:19;;;;;;;3.88;3.30;;;-3.80;99.90;;;;;;4885366;29;20203;-70
2024/01/10 16:56:48;;;;;;;5.45;2.63;;;-3.80;99.90;;;;;;4894970;29;20207;-69
2024/01/10 16:59:15;;;;;;;6.97;2.55;;;-3.70;99.90;;;;;;4887919;29;20215;-69
2024/01/10 17:01:42;;;;;;;6.03;3.63;;;-3.80;99.90;;;;;;4896525;29;20288;-70
2024/01/10 17:04:09;;;;;;;3.80;3.50;;;-3.80;99.90;;;;;;4894495;29;20242;-70
2024/01/10 17:06:36;;;;;;;8.70;4.97;;;-3.70;99.90;;;;;;4894971;29;20525;-68
2024/01/10 17:09:04;;;;;;;2.92;2.80;;;-3.70;99.90;;;;;;4891429;29;20223;-68
2024/01/10 17:11:31;;;;;;;5.22;3.72;;;-3.70;99.90;;;;;;4892696;29;20223;-70
2024/01/10 17:13:59;;;;;;;15.43;4.65;;;-3.70;99.90;;;;;;4895319;29;20274;-69
2024/01/10 17:16:28;;;;;;;3.22;2.90;;;-3.70;99.90;;;;;;4897271;29;20211;-69
2024/01/10 17:18:54;;;;;;;5.05;4.25;;;-3.70;99.90;;;;;;4895195;29;20318;-68
2024/01/10 17:21:21;;;;;;;5.90;3.72;;;-3.70;99.90;;;;;;4894253;29;20227;-68
2024/01/10 17:23:48;;;;;;;6.32;4.00;;;-3.70;99.90;;;;;;4895980;29;20208;-68
2024/01/10 17:26:15;;;;;;;5.05;4.80;;;-3.70;99.90;;;;;;4891927;29;20207;-68
2024/01/10 17:28:41;;;;;;;7.35;3.53;;;-3.60;99.90;;;;;;4892217;29;20241;-70
2024/01/10 17:31:09;;;;;;;12.55;5.38;;;-3.60;99.90;;;;;;4887105;29;20242;-69
2024/01/10 17:33:36;;;;;;;4.32;2.58;;;-3.60;99.90;;;;;;4889333;29;20234;-69
2024/01/10 17:36:04;;;;;;;6.32;4.07;;;-3.60;99.90;;;;;;4895949;29;20227;-67
2024/01/10 17:38:30;;;;;;;12.10;4.80;;;-3.60;99.90;;;;;;4895539;29;20230;-68
2024/01/10 17:40:57;;;;;;;6.65;3.95;;;-3.60;99.90;;;;;;4894406;29;20247;-69
2024/01/10 17:43:24;;;;;;;5.43;4.75;;;-3.60;99.90;;;;;;4895156;29;20223;-69
2024/01/10 17:45:52;;;;;;;1.85;1.75;;;-3.60;99.90;;;;;;4890096;29;20215;-68
2024/01/10 17:48:20;;;;;;;6.72;4.45;;;-3.60;99.90;;;;;;4892433;29;20678;-69